createdAt,value
2022-08-01T00:00:57.076Z,7.85
2022-08-01T00:02:00.528Z,8.02
2022-08-01T00:03:02.995Z,7.18
2022-08-01T00:04:12.052Z,7.97
2022-08-01T00:05:23.275Z,7.03
2022-08-01T00:06:25.467Z,7.82
2022-08-01T00:07:27.655Z,6.80
2022-08-01T00:08:33.639Z,7.93
2022-08-01T00:09:35.660Z,7.22
2022-08-01T00:10:37.740Z,7.65
2022-08-01T00:11:43.227Z,6.88
2022-08-01T00:12:46.230Z,8.05
2022-08-01T00:13:48.415Z,8.10
2022-08-01T00:14:50.706Z,7.70
2022-08-01T00:15:54.292Z,8.23
2022-08-01T00:16:56.526Z,8.48
2022-08-01T00:17:59.059Z,8.52
2022-08-01T00:20:16.934Z,8.13
2022-08-01T00:21:19.230Z,8.32
2022-08-01T00:22:21.558Z,7.93
2022-08-01T00:23:25.016Z,8.10
2022-08-01T00:24:27.174Z,7.93
2022-08-01T00:25:33.699Z,8.00
2022-08-01T00:26:36.206Z,8.05
2022-08-01T00:27:38.355Z,8.05
2022-08-01T00:28:40.867Z,8.02
2022-08-01T00:30:12.531Z,7.85
2022-08-01T00:31:05.262Z,7.75
2022-08-01T00:32:08.249Z,8.32
2022-08-01T00:33:10.477Z,7.82
2022-08-01T00:34:12.728Z,8.18
2022-08-01T00:35:17.533Z,7.85
2022-08-01T00:36:19.606Z,8.05
2022-08-01T00:37:21.954Z,8.10
2022-08-01T00:38:24.070Z,7.25
2022-08-01T00:39:26.101Z,8.10
2022-08-01T00:40:28.212Z,8.40
2022-08-01T00:41:30.337Z,7.93
2022-08-01T00:42:32.437Z,8.15
2022-08-01T00:43:35.887Z,7.55
2022-08-01T00:44:38.261Z,7.22
2022-08-01T00:45:40.562Z,7.07
2022-08-01T00:46:44.877Z,8.20
2022-08-01T00:47:46.942Z,7.72
2022-08-01T00:48:49.110Z,7.63
2022-08-01T00:49:51.228Z,7.95
2022-08-01T00:50:53.285Z,7.65
2022-08-01T00:51:56.665Z,7.85
2022-08-01T00:53:00.695Z,7.97
2022-08-01T00:54:03.028Z,7.57
2022-08-01T00:55:05.993Z,7.82
2022-08-01T00:56:10.318Z,7.03
2022-08-01T00:57:13.194Z,7.47
2022-08-01T00:58:17.921Z,7.43
2022-08-01T00:59:22.678Z,7.38
2022-08-01T01:00:27.245Z,8.48
2022-08-01T01:01:39.717Z,6.93
2022-08-01T01:02:42.272Z,7.72
2022-08-01T01:03:58.669Z,7.57
2022-08-01T01:05:02.037Z,7.10
2022-08-01T01:06:19.415Z,8.15
2022-08-01T01:07:49.961Z,7.95
2022-08-01T01:08:59.920Z,8.27
2022-08-01T01:10:22.467Z,8.05
2022-08-01T01:11:33.108Z,7.40
2022-08-01T01:12:38.903Z,7.43
2022-08-01T01:14:05.614Z,7.85
2022-08-01T01:15:19.190Z,8.02
2022-08-01T01:16:23.674Z,7.97
2022-08-01T01:17:50.946Z,8.13
2022-08-01T01:19:00.025Z,8.27
2022-08-01T01:20:04.894Z,8.32
2022-08-01T01:21:19.038Z,8.15
2022-08-01T01:22:27.243Z,8.40
2022-08-01T01:24:06.737Z,7.97
2022-08-01T01:25:37.945Z,8.77
2022-08-01T01:27:00.414Z,8.00
2022-08-01T01:28:27.829Z,8.35
2022-08-01T01:29:58.521Z,8.57
2022-08-01T01:31:02.094Z,8.50
2022-08-01T01:32:11.897Z,8.43
2022-08-01T01:33:15.599Z,8.50
2022-08-01T01:34:21.066Z,8.57
2022-08-01T01:35:27.191Z,8.60
2022-08-01T01:36:32.025Z,8.63
2022-08-01T01:37:35.434Z,8.88
2022-08-01T01:38:43.188Z,7.97
2022-08-01T01:39:54.349Z,8.60
2022-08-01T01:40:58.410Z,9.10
2022-08-01T01:42:02.225Z,8.50
2022-08-01T01:43:05.200Z,9.07
2022-08-01T01:44:09.320Z,8.10
2022-08-01T01:45:12.556Z,8.20
2022-08-01T01:46:19.573Z,8.55
2022-08-01T01:47:22.781Z,9.32
2022-08-01T01:48:26.330Z,8.77
2022-08-01T01:49:31.223Z,9.63
2022-08-01T01:50:33.936Z,8.88
2022-08-01T01:51:36.049Z,8.70
2022-08-01T01:52:42.575Z,8.93
2022-08-01T01:53:47.032Z,8.70
2022-08-01T01:54:51.803Z,8.88
2022-08-01T01:55:56.596Z,9.07
2022-08-01T01:57:02.107Z,9.30
2022-08-01T01:58:06.273Z,9.15
2022-08-01T01:59:08.730Z,9.00
2022-08-01T02:00:13.957Z,9.80
2022-08-01T02:01:17.388Z,8.70
2022-08-01T02:02:43.937Z,8.40
2022-08-01T02:03:48.054Z,8.82
2022-08-01T02:04:53.498Z,8.48
2022-08-01T02:05:57.426Z,8.82
2022-08-01T02:07:00.211Z,9.30
2022-08-01T02:08:04.639Z,9.25
2022-08-01T02:09:12.056Z,9.75
2022-08-01T02:10:18.424Z,9.35
2022-08-01T02:11:23.317Z,9.60
2022-08-01T02:12:25.970Z,8.93
2022-08-01T02:14:02.061Z,9.93
2022-08-01T02:15:05.745Z,8.98
2022-08-01T02:16:09.814Z,9.98
2022-08-01T02:17:14.333Z,9.40
2022-08-01T02:18:18.663Z,9.68
2022-08-01T02:19:26.487Z,9.75
2022-08-01T02:20:31.282Z,10.05
2022-08-01T02:21:53.450Z,10.77
2022-08-01T02:23:05.627Z,9.60
2022-08-01T02:24:15.548Z,10.10
2022-08-01T02:26:10.564Z,9.77
2022-08-01T02:27:14.858Z,9.20
2022-08-01T02:29:29.126Z,10.15
2022-08-01T02:30:37.145Z,9.50
2022-08-01T02:31:45.089Z,9.65
2022-08-01T02:33:03.315Z,9.63
2022-08-01T02:34:12.750Z,9.38
2022-08-01T02:35:21.917Z,10.27
2022-08-01T02:36:33.084Z,9.10
2022-08-01T02:37:44.342Z,9.50
2022-08-01T02:38:49.854Z,9.35
2022-08-01T02:39:55.384Z,10.07
2022-08-01T02:41:01.059Z,9.23
2022-08-01T02:42:07.599Z,9.30
2022-08-01T02:43:11.901Z,9.45
2022-08-01T02:44:21.229Z,9.25
2022-08-01T02:45:27.101Z,8.85
2022-08-01T02:46:44.380Z,8.70
2022-08-01T02:47:48.595Z,9.35
2022-08-01T02:48:53.877Z,8.60
2022-08-01T02:49:56.884Z,8.50
2022-08-01T02:51:02.669Z,8.95
2022-08-01T02:52:10.926Z,8.93
2022-08-01T02:53:15.830Z,8.70
2022-08-01T02:54:22.603Z,8.98
2022-08-01T02:55:26.114Z,9.50
2022-08-01T02:56:36.082Z,9.05
2022-08-01T02:57:51.851Z,8.93
2022-08-01T02:58:55.518Z,8.45
2022-08-01T03:00:00.681Z,8.52
2022-08-01T03:01:04.077Z,8.27
2022-08-01T03:02:08.396Z,9.32
2022-08-01T03:03:13.738Z,9.35
2022-08-01T03:04:18.981Z,8.73
2022-08-01T03:05:21.662Z,9.60
2022-08-01T03:06:25.926Z,9.10
2022-08-01T03:07:34.615Z,9.00
2022-08-01T03:08:42.360Z,8.65
2022-08-01T03:09:47.000Z,9.35
2022-08-01T03:10:50.680Z,9.52
2022-08-01T03:11:53.885Z,9.02
2022-08-01T03:13:01.474Z,10.32
2022-08-01T03:14:08.812Z,12.13
2022-08-01T03:15:13.317Z,12.07
2022-08-01T03:16:17.569Z,14.57
2022-08-01T03:17:25.948Z,16.42
2022-08-01T03:18:29.964Z,15.50
2022-08-01T03:19:34.716Z,14.60
2022-08-01T03:20:39.911Z,15.57
2022-08-01T03:21:44.431Z,16.02
2022-08-01T03:22:49.101Z,16.27
2022-08-01T03:23:55.299Z,14.50
2022-08-01T03:25:00.483Z,13.63
2022-08-01T03:26:05.314Z,15.00
2022-08-01T03:27:11.827Z,14.55
2022-08-01T03:28:18.216Z,13.25
2022-08-01T03:29:26.649Z,12.38
2022-08-01T03:30:31.064Z,12.23
2022-08-01T03:31:37.000Z,11.55
2022-08-01T03:32:39.877Z,10.57
2022-08-01T03:33:42.220Z,10.65
2022-08-01T03:34:44.632Z,10.43
2022-08-01T03:35:55.893Z,10.48
2022-08-01T03:37:08.341Z,9.60
2022-08-01T03:38:16.197Z,9.25
2022-08-01T03:39:23.741Z,10.70
2022-08-01T03:40:32.734Z,9.85
2022-08-01T03:41:41.167Z,10.00
2022-08-01T03:42:49.634Z,9.57
2022-08-01T03:44:02.387Z,10.45
2022-08-01T03:45:13.456Z,10.20
2022-08-01T03:46:25.582Z,10.93
2022-08-01T03:47:44.575Z,9.93
2022-08-01T03:48:50.292Z,10.00
2022-08-01T03:49:54.757Z,10.20
2022-08-01T03:51:00.077Z,9.20
2022-08-01T03:52:06.038Z,9.73
2022-08-01T03:53:11.149Z,9.90
2022-08-01T03:54:15.649Z,9.63
2022-08-01T03:55:19.871Z,10.98
2022-08-01T03:56:24.204Z,9.40
2022-08-01T03:57:36.778Z,9.15
2022-08-01T03:58:50.013Z,9.52
2022-08-01T03:59:53.163Z,8.77
2022-08-01T04:00:56.488Z,9.35
2022-08-01T04:01:59.958Z,9.70
2022-08-01T04:03:02.184Z,9.05
2022-08-01T04:04:06.975Z,9.30
2022-08-01T04:05:12.543Z,9.27
2022-08-01T04:06:15.247Z,9.05
2022-08-01T04:07:31.427Z,8.57
2022-08-01T04:08:37.787Z,8.30
2022-08-01T04:09:39.848Z,8.32
2022-08-01T04:10:43.523Z,8.05
2022-08-01T04:11:45.663Z,8.75
2022-08-01T04:12:48.665Z,7.70
2022-08-01T04:13:52.029Z,8.40
2022-08-01T04:14:54.261Z,7.90
2022-08-01T04:15:56.365Z,7.75
2022-08-01T04:16:58.738Z,7.68
2022-08-01T04:18:00.849Z,7.43
2022-08-01T04:19:04.141Z,7.93
2022-08-01T04:20:06.740Z,7.60
2022-08-01T04:21:08.892Z,7.22
2022-08-01T04:22:16.166Z,7.65
2022-08-01T04:23:24.550Z,7.35
2022-08-01T04:24:30.129Z,7.20
2022-08-01T04:25:37.807Z,6.88
2022-08-01T04:26:42.611Z,7.47
2022-08-01T04:27:51.137Z,6.85
2022-08-01T04:28:56.312Z,7.22
2022-08-01T04:30:00.552Z,6.85
2022-08-01T04:31:05.922Z,6.75
2022-08-01T04:32:12.614Z,6.35
2022-08-01T04:33:17.472Z,6.50
2022-08-01T04:34:24.176Z,6.45
2022-08-01T04:36:02.709Z,6.30
2022-08-01T04:36:52.702Z,5.05
2022-08-01T04:37:55.350Z,6.63
2022-08-01T04:39:01.174Z,5.40
2022-08-01T04:40:04.753Z,4.93
2022-08-01T04:41:09.927Z,5.30
2022-08-01T04:42:14.865Z,4.95
2022-08-01T04:43:17.036Z,5.82
2022-08-01T04:44:19.524Z,5.50
2022-08-01T04:45:24.998Z,5.00
2022-08-01T04:46:28.857Z,5.10
2022-08-01T04:47:31.743Z,5.22
2022-08-01T04:48:37.449Z,5.35
2022-08-01T04:49:48.943Z,5.03
2022-08-01T04:50:52.511Z,4.82
2022-08-01T04:52:01.296Z,4.72
2022-08-01T04:53:04.371Z,4.38
2022-08-01T04:54:08.520Z,4.53
2022-08-01T04:55:11.295Z,4.72
2022-08-01T04:56:14.481Z,4.63
2022-08-01T04:57:16.696Z,4.43
2022-08-01T04:58:19.266Z,4.80
2022-08-01T04:59:40.060Z,4.25
2022-08-01T05:00:42.558Z,4.30
2022-08-01T05:01:49.826Z,4.32
2022-08-01T05:02:52.163Z,5.00
2022-08-01T05:03:54.199Z,4.50
2022-08-01T05:05:01.592Z,4.30
2022-08-01T05:06:04.082Z,4.60
2022-08-01T05:07:06.222Z,4.45
2022-08-01T05:08:08.371Z,4.30
2022-08-01T05:09:10.807Z,4.57
2022-08-01T05:10:14.971Z,4.47
2022-08-01T05:11:17.022Z,3.75
2022-08-01T05:12:24.722Z,4.28
2022-08-01T05:13:27.046Z,4.15
2022-08-01T05:14:32.889Z,4.07
2022-08-01T05:15:37.853Z,3.90
2022-08-01T05:16:39.949Z,3.85
2022-08-01T05:17:45.866Z,4.20
2022-08-01T05:18:50.245Z,3.70
2022-08-01T05:19:52.429Z,3.72
2022-08-01T05:20:54.436Z,4.07
2022-08-01T05:22:01.954Z,3.70
2022-08-01T05:23:05.296Z,3.90
2022-08-01T05:24:07.766Z,3.83
2022-08-01T05:25:10.973Z,3.97
2022-08-01T05:26:15.669Z,3.70
2022-08-01T05:27:17.930Z,4.00
2022-08-01T05:28:21.487Z,4.28
2022-08-01T05:29:23.818Z,3.80
2022-08-01T05:30:26.030Z,3.83
2022-08-01T05:31:30.725Z,3.70
2022-08-01T05:32:33.234Z,3.95
2022-08-01T05:33:35.275Z,3.70
2022-08-01T05:34:38.577Z,3.75
2022-08-01T05:35:47.757Z,3.50
2022-08-01T05:36:55.312Z,3.55
2022-08-01T05:38:00.284Z,4.05
2022-08-01T05:39:02.384Z,3.63
2022-08-01T05:40:05.768Z,3.88
2022-08-01T05:41:07.849Z,3.85
2022-08-01T05:42:12.208Z,3.70
2022-08-01T05:43:14.529Z,3.70
2022-08-01T05:44:16.612Z,3.42
2022-08-01T05:45:18.649Z,3.80
2022-08-01T05:46:20.885Z,3.70
2022-08-01T05:47:25.846Z,3.75
2022-08-01T05:48:27.911Z,3.28
2022-08-01T05:49:30.018Z,3.45
2022-08-01T05:50:34.975Z,3.83
2022-08-01T05:51:39.727Z,3.90
2022-08-01T05:52:41.759Z,3.70
2022-08-01T05:53:43.938Z,3.47
2022-08-01T05:54:45.986Z,3.58
2022-08-01T05:55:48.118Z,3.67
2022-08-01T05:56:50.281Z,3.30
2022-08-01T05:57:53.271Z,3.20
2022-08-01T05:58:55.340Z,3.40
2022-08-01T05:59:57.373Z,3.28
2022-08-01T06:00:59.974Z,3.40
2022-08-01T06:02:02.347Z,3.15
2022-08-01T06:03:04.471Z,3.63
2022-08-01T06:04:06.640Z,3.50
2022-08-01T06:05:12.886Z,3.88
2022-08-01T06:06:16.161Z,3.60
2022-08-01T06:07:18.277Z,3.30
2022-08-01T06:08:20.348Z,3.35
2022-08-01T06:09:22.641Z,3.10
2022-08-01T06:10:25.060Z,3.28
2022-08-01T06:11:27.247Z,3.17
2022-08-01T06:12:32.468Z,3.30
2022-08-01T06:13:44.894Z,3.90
2022-08-01T06:14:50.784Z,3.50
2022-08-01T06:15:52.858Z,3.42
2022-08-01T06:16:55.175Z,3.78
2022-08-01T06:17:57.327Z,3.25
2022-08-01T06:18:59.494Z,3.30
2022-08-01T06:20:01.588Z,3.40
2022-08-01T06:21:05.151Z,3.47
2022-08-01T06:22:07.456Z,3.13
2022-08-01T06:23:32.253Z,3.50
2022-08-01T06:24:34.317Z,3.58
2022-08-01T06:25:36.780Z,3.47
2022-08-01T06:26:38.898Z,3.80
2022-08-01T06:27:41.090Z,3.58
2022-08-01T06:28:43.289Z,3.20
2022-08-01T06:29:50.402Z,3.20
2022-08-01T06:30:56.336Z,3.30
2022-08-01T06:31:58.630Z,3.33
2022-08-01T06:33:04.058Z,3.20
2022-08-01T06:34:08.364Z,3.75
2022-08-01T06:35:10.342Z,3.65
2022-08-01T06:36:12.409Z,3.88
2022-08-01T06:37:15.743Z,3.70
2022-08-01T06:38:17.929Z,3.63
2022-08-01T06:39:21.299Z,3.60
2022-08-01T06:40:23.762Z,3.50
2022-08-01T06:41:25.750Z,3.65
2022-08-01T06:42:27.811Z,3.97
2022-08-01T06:43:29.814Z,3.72
2022-08-01T06:44:31.915Z,3.70
2022-08-01T06:45:34.046Z,3.78
2022-08-01T06:46:36.855Z,3.63
2022-08-01T06:47:39.961Z,3.85
2022-08-01T06:48:42.287Z,3.80
2022-08-01T06:49:44.390Z,3.80
2022-08-01T06:50:46.468Z,3.67
2022-08-01T06:51:48.465Z,3.45
2022-08-01T06:52:50.587Z,3.33
2022-08-01T06:53:52.727Z,3.42
2022-08-01T06:54:55.093Z,3.42
2022-08-01T06:55:57.105Z,3.20
2022-08-01T06:57:07.211Z,2.97
2022-08-01T06:58:09.256Z,3.15
2022-08-01T06:59:11.309Z,2.97
2022-08-01T07:00:14.277Z,2.67
2022-08-01T07:01:18.541Z,2.90
2022-08-01T07:02:20.827Z,2.78
2022-08-01T07:03:22.980Z,2.78
2022-08-01T07:04:25.152Z,2.90
2022-08-01T07:05:27.856Z,2.85
2022-08-01T07:06:29.902Z,2.80
2022-08-01T07:07:32.498Z,3.08
2022-08-01T07:08:34.579Z,2.80
2022-08-01T07:09:36.668Z,2.95
2022-08-01T07:10:38.785Z,3.15
2022-08-01T07:11:41.133Z,2.72
2022-08-01T07:12:43.345Z,2.85
2022-08-01T07:13:46.926Z,3.25
2022-08-01T07:14:49.275Z,3.15
2022-08-01T07:15:51.477Z,2.75
2022-08-01T07:16:53.592Z,3.10
2022-08-01T07:17:56.002Z,3.17
2022-08-01T07:18:58.007Z,3.28
2022-08-01T07:20:00.088Z,3.10
2022-08-01T07:21:02.581Z,3.20
2022-08-01T07:22:07.345Z,3.25
2022-08-01T07:23:09.572Z,2.63
2022-08-01T07:24:15.599Z,2.58
2022-08-01T07:25:17.801Z,3.10
2022-08-01T07:26:20.248Z,3.05
2022-08-01T07:27:24.059Z,3.60
2022-08-01T07:28:28.348Z,3.03
2022-08-01T07:29:30.380Z,3.38
2022-08-01T07:30:32.467Z,3.05
2022-08-01T07:31:34.498Z,3.40
2022-08-01T07:32:36.703Z,3.33
2022-08-01T07:33:49.004Z,3.08
2022-08-01T07:34:51.938Z,2.70
2022-08-01T07:35:56.220Z,2.70
2022-08-01T07:36:58.262Z,2.75
2022-08-01T07:38:07.771Z,2.80
2022-08-01T07:39:13.200Z,2.83
2022-08-01T07:40:15.678Z,2.80
2022-08-01T07:41:17.887Z,2.80
2022-08-01T07:42:19.988Z,2.58
2022-08-01T07:43:22.120Z,3.15
2022-08-01T07:44:24.516Z,2.92
2022-08-01T07:45:31.604Z,2.80
2022-08-01T07:46:33.637Z,2.85
2022-08-01T07:47:36.467Z,2.72
2022-08-01T07:48:38.469Z,2.33
2022-08-01T07:49:41.267Z,2.40
2022-08-01T07:50:43.492Z,2.55
2022-08-01T07:52:03.777Z,2.42
2022-08-01T07:53:06.871Z,2.42
2022-08-01T07:54:08.975Z,2.33
2022-08-01T07:55:16.579Z,2.40
2022-08-01T07:56:18.929Z,2.83
2022-08-01T07:57:21.229Z,2.70
2022-08-01T07:58:23.215Z,2.20
2022-08-01T07:59:26.139Z,2.38
2022-08-01T08:00:29.567Z,2.83
2022-08-01T08:01:31.674Z,2.70
2022-08-01T08:02:33.923Z,2.47
2022-08-01T08:03:35.937Z,2.30
2022-08-01T08:04:38.057Z,2.50
2022-08-01T08:05:58.123Z,3.08
2022-08-01T08:07:02.900Z,2.75
2022-08-01T08:08:09.407Z,2.50
2022-08-01T08:09:12.297Z,2.50
2022-08-01T08:10:14.448Z,2.22
2022-08-01T08:11:16.533Z,2.70
2022-08-01T08:12:28.484Z,2.50
2022-08-01T08:13:32.185Z,2.85
2022-08-01T08:14:37.261Z,2.50
2022-08-01T08:15:39.766Z,2.55
2022-08-01T08:16:43.027Z,2.58
2022-08-01T08:17:45.038Z,2.60
2022-08-01T08:18:57.127Z,2.58
2022-08-01T08:19:59.456Z,2.50
2022-08-01T08:21:06.456Z,2.60
2022-08-01T08:22:10.369Z,2.85
2022-08-01T08:23:43.054Z,2.75
2022-08-01T08:24:46.465Z,3.15
2022-08-01T08:25:49.077Z,2.78
2022-08-01T08:26:56.906Z,2.90
2022-08-01T08:27:59.025Z,2.72
2022-08-01T08:29:01.122Z,2.72
2022-08-01T08:30:08.751Z,2.90
2022-08-01T08:31:25.273Z,3.17
2022-08-01T08:32:33.151Z,2.63
2022-08-01T08:33:35.265Z,2.60
2022-08-01T08:34:37.261Z,2.70
2022-08-01T08:35:54.014Z,3.33
2022-08-01T08:36:57.357Z,2.83
2022-08-01T08:38:01.003Z,2.67
2022-08-01T08:39:04.630Z,2.72
2022-08-01T08:40:07.860Z,2.70
2022-08-01T08:41:11.128Z,2.90
2022-08-01T08:42:14.046Z,2.80
2022-08-01T08:43:17.132Z,2.90
2022-08-01T08:44:21.320Z,2.50
2022-08-01T08:45:30.903Z,3.70
2022-08-01T08:46:49.576Z,3.30
2022-08-01T08:47:53.237Z,3.00
2022-08-01T08:48:57.093Z,3.25
2022-08-01T08:50:01.956Z,3.03
2022-08-01T08:51:07.299Z,3.38
2022-08-01T08:52:10.941Z,3.30
2022-08-01T08:53:18.361Z,3.45
2022-08-01T08:54:31.474Z,3.47
2022-08-01T08:55:55.552Z,3.20
2022-08-01T08:57:00.248Z,3.15
2022-08-01T08:58:06.948Z,3.40
2022-08-01T08:59:09.250Z,3.55
2022-08-01T09:00:13.183Z,3.65
2022-08-01T09:01:15.204Z,3.35
2022-08-01T09:02:17.235Z,3.50
2022-08-01T09:03:19.544Z,3.17
2022-08-01T09:04:26.130Z,3.65
2022-08-01T09:05:38.653Z,3.10
2022-08-01T09:06:42.104Z,3.30
2022-08-01T09:07:44.303Z,3.17
2022-08-01T09:08:47.445Z,3.30
2022-08-01T09:09:51.435Z,4.00
2022-08-01T09:10:53.668Z,3.25
2022-08-01T09:11:57.646Z,3.25
2022-08-01T09:13:12.190Z,3.35
2022-08-01T09:14:24.489Z,3.20
2022-08-01T09:15:51.298Z,3.50
2022-08-01T09:17:12.119Z,3.50
2022-08-01T09:18:37.750Z,3.38
2022-08-01T09:19:48.946Z,2.88
2022-08-01T09:20:51.057Z,3.30
2022-08-01T09:22:01.943Z,3.03
2022-08-01T09:23:04.845Z,3.25
2022-08-01T09:24:15.806Z,3.35
2022-08-01T09:25:18.692Z,3.13
2022-08-01T09:26:35.435Z,3.30
2022-08-01T09:27:44.095Z,2.97
2022-08-01T09:28:49.595Z,2.95
2022-08-01T09:30:01.379Z,3.22
2022-08-01T09:31:15.303Z,3.25
2022-08-01T09:32:22.107Z,3.25
2022-08-01T09:33:48.367Z,3.20
2022-08-01T09:34:52.839Z,3.45
2022-08-01T09:35:57.308Z,3.03
2022-08-01T09:37:02.055Z,3.25
2022-08-01T09:38:18.193Z,2.85
2022-08-01T09:39:22.748Z,3.22
2022-08-01T09:40:44.799Z,2.92
2022-08-01T09:41:47.755Z,2.80
2022-08-01T09:43:15.068Z,2.60
2022-08-01T09:44:27.466Z,3.00
2022-08-01T09:45:43.887Z,2.60
2022-08-01T09:46:53.506Z,2.83
2022-08-01T09:47:55.570Z,2.80
2022-08-01T09:49:07.349Z,2.85
2022-08-01T09:50:12.835Z,2.80
2022-08-01T09:52:00.354Z,3.40
2022-08-01T09:52:57.209Z,3.03
2022-08-01T09:54:00.457Z,2.88
2022-08-01T09:55:08.782Z,2.72
2022-08-01T09:56:12.837Z,3.00
2022-08-01T09:57:17.356Z,2.67
2022-08-01T09:58:20.951Z,2.97
2022-08-01T09:59:26.382Z,2.60
2022-08-01T10:00:45.204Z,3.03
2022-08-01T10:01:51.371Z,2.85
2022-08-01T10:02:53.596Z,2.95
2022-08-01T10:04:06.953Z,2.80
2022-08-01T10:05:18.879Z,2.60
2022-08-01T10:06:24.934Z,3.00
2022-08-01T10:07:42.773Z,2.88
2022-08-01T10:09:49.965Z,2.90
2022-08-01T10:11:13.061Z,3.00
2022-08-01T10:12:22.013Z,3.00
2022-08-01T10:13:24.260Z,3.00
2022-08-01T10:14:28.046Z,2.85
2022-08-01T10:15:36.917Z,2.85
2022-08-01T10:16:40.787Z,3.25
2022-08-01T10:17:58.650Z,3.28
2022-08-01T10:19:01.770Z,3.45
2022-08-01T10:20:05.811Z,2.80
2022-08-01T10:21:53.213Z,2.80
2022-08-01T10:22:52.283Z,2.97
2022-08-01T10:24:03.289Z,2.70
2022-08-01T10:25:42.360Z,2.60
2022-08-01T10:26:49.130Z,3.03
2022-08-01T10:27:56.138Z,2.65
2022-08-01T10:28:58.715Z,2.60
2022-08-01T10:30:14.238Z,3.00
2022-08-01T10:31:30.771Z,2.92
2022-08-01T10:32:34.391Z,2.70
2022-08-01T10:33:52.680Z,3.40
2022-08-01T10:34:56.484Z,2.83
2022-08-01T10:35:59.036Z,3.03
2022-08-01T10:37:05.637Z,3.10
2022-08-01T10:38:10.950Z,2.90
2022-08-01T10:39:19.974Z,3.03
2022-08-01T10:40:31.490Z,3.13
2022-08-01T10:41:34.942Z,2.80
2022-08-01T10:42:38.122Z,3.20
2022-08-01T10:43:40.295Z,2.70
2022-08-01T10:44:49.003Z,2.70
2022-08-01T10:45:52.349Z,3.15
2022-08-01T10:47:00.890Z,2.95
2022-08-01T10:49:13.213Z,3.28
2022-08-01T10:50:26.141Z,2.97
2022-08-01T10:51:52.500Z,2.65
2022-08-01T10:53:23.363Z,3.30
2022-08-01T10:54:40.719Z,2.75
2022-08-01T10:55:57.287Z,3.20
2022-08-01T10:57:01.474Z,2.72
2022-08-01T10:58:09.317Z,3.30
2022-08-01T10:59:49.631Z,3.00
2022-08-01T11:00:48.947Z,3.25
2022-08-01T11:02:06.006Z,3.38
2022-08-01T11:03:08.235Z,3.20
2022-08-01T11:04:18.482Z,3.40
2022-08-01T11:05:23.939Z,3.20
2022-08-01T11:06:44.274Z,3.03
2022-08-01T11:07:54.111Z,3.80
2022-08-01T11:08:57.152Z,4.32
2022-08-01T11:10:23.788Z,4.15
2022-08-01T11:11:26.717Z,3.70
2022-08-01T11:12:43.864Z,3.80
2022-08-01T11:14:09.376Z,3.95
2022-08-01T11:15:11.703Z,3.67
2022-08-01T11:16:37.405Z,2.85
2022-08-01T11:17:54.982Z,3.28
2022-08-01T11:18:57.459Z,3.10
2022-08-01T11:20:14.231Z,3.10
2022-08-01T11:21:58.063Z,3.20
2022-08-01T11:23:07.960Z,3.05
2022-08-01T11:24:10.159Z,3.22
2022-08-01T11:25:12.227Z,3.80
2022-08-01T11:26:17.568Z,3.50
2022-08-01T11:27:33.714Z,3.17
2022-08-01T11:28:36.519Z,3.17
2022-08-01T11:29:39.095Z,3.63
2022-08-01T11:30:42.242Z,3.30
2022-08-01T11:31:44.632Z,3.90
2022-08-01T11:33:11.054Z,3.80
2022-08-01T11:34:14.244Z,3.90
2022-08-01T11:35:18.994Z,4.00
2022-08-01T11:36:55.849Z,3.78
2022-08-01T11:37:46.247Z,3.55
2022-08-01T11:39:14.258Z,3.35
2022-08-01T11:40:19.341Z,3.47
2022-08-01T11:41:38.630Z,3.75
2022-08-01T11:42:41.754Z,3.63
2022-08-01T11:44:00.447Z,3.55
2022-08-01T11:45:02.689Z,3.42
2022-08-01T11:46:07.858Z,3.33
2022-08-01T11:47:11.602Z,3.00
2022-08-01T11:48:27.748Z,3.50
2022-08-01T11:49:49.394Z,3.38
2022-08-01T11:50:54.595Z,3.55
2022-08-01T11:52:10.184Z,3.75
2022-08-01T11:53:15.697Z,3.55
2022-08-01T11:54:18.007Z,3.25
2022-08-01T11:55:37.915Z,3.65
2022-08-01T11:56:47.981Z,3.20
2022-08-01T11:57:50.421Z,3.50
2022-08-01T11:59:00.550Z,3.35
2022-08-01T12:00:15.222Z,3.20
2022-08-01T12:01:20.873Z,3.25
2022-08-01T12:02:30.176Z,3.35
2022-08-01T12:03:34.530Z,3.30
2022-08-01T12:04:52.322Z,3.28
2022-08-01T12:05:58.808Z,3.53
2022-08-01T12:07:13.588Z,3.28
2022-08-01T12:08:29.444Z,3.70
2022-08-01T12:09:31.850Z,4.03
2022-08-01T12:10:49.853Z,3.60
2022-08-01T12:11:52.173Z,4.28
2022-08-01T12:13:01.498Z,5.00
2022-08-01T12:14:03.848Z,4.70
2022-08-01T12:15:10.336Z,3.92
2022-08-01T12:16:12.910Z,3.83
2022-08-01T12:17:15.579Z,4.10
2022-08-01T12:18:21.302Z,4.20
2022-08-01T12:19:25.505Z,4.80
2022-08-01T12:20:32.223Z,4.22
2022-08-01T12:21:34.526Z,4.38
2022-08-01T12:22:37.416Z,4.20
2022-08-01T12:23:39.586Z,3.40
2022-08-01T12:24:44.802Z,3.42
2022-08-01T12:25:52.514Z,4.13
2022-08-01T12:26:54.616Z,3.35
2022-08-01T12:28:01.848Z,3.70
2022-08-01T12:29:03.979Z,3.42
2022-08-01T12:30:08.583Z,3.55
2022-08-01T12:31:10.855Z,3.20
2022-08-01T12:32:35.508Z,3.70
2022-08-01T12:33:37.890Z,3.70
2022-08-01T12:34:40.063Z,3.75
2022-08-01T12:35:42.957Z,3.10
2022-08-01T12:36:45.539Z,2.90
2022-08-01T12:37:50.100Z,2.97
2022-08-01T12:38:55.434Z,3.05
2022-08-01T12:39:58.960Z,3.10
2022-08-01T12:41:01.725Z,2.80
2022-08-01T12:42:09.184Z,2.90
2022-08-01T12:43:27.272Z,2.78
2022-08-01T12:44:31.958Z,2.53
2022-08-01T12:45:54.302Z,2.92
2022-08-01T12:46:59.746Z,3.00
2022-08-01T12:48:02.765Z,3.17
2022-08-01T12:49:04.966Z,3.83
2022-08-01T12:50:12.504Z,3.00
2022-08-01T12:51:15.052Z,3.17
2022-08-01T12:52:18.587Z,3.47
2022-08-01T12:53:21.827Z,3.17
2022-08-01T12:54:26.881Z,3.20
2022-08-01T12:55:34.166Z,3.40
2022-08-01T12:56:40.241Z,3.25
2022-08-01T12:57:45.828Z,3.50
2022-08-01T12:58:48.239Z,3.40
2022-08-01T12:59:54.205Z,3.58
2022-08-01T13:01:08.411Z,3.08
2022-08-01T13:02:12.225Z,3.03
2022-08-01T13:03:18.226Z,3.38
2022-08-01T13:04:23.159Z,3.13
2022-08-01T13:05:26.386Z,3.03
2022-08-01T13:06:30.288Z,3.33
2022-08-01T13:07:45.675Z,3.10
2022-08-01T13:08:49.122Z,3.00
2022-08-01T13:09:52.238Z,3.20
2022-08-01T13:11:06.403Z,3.10
2022-08-01T13:12:11.643Z,3.58
2022-08-01T13:13:22.243Z,3.33
2022-08-01T13:14:30.718Z,3.40
2022-08-01T13:15:41.759Z,2.97
2022-08-01T13:16:56.696Z,3.40
2022-08-01T13:18:01.566Z,2.88
2022-08-01T13:19:04.057Z,3.33
2022-08-01T13:20:07.386Z,3.30
2022-08-01T13:21:23.418Z,3.10
2022-08-01T13:22:38.988Z,3.17
2022-08-01T13:24:02.085Z,2.95
2022-08-01T13:25:19.839Z,3.03
2022-08-01T13:26:48.801Z,4.20
2022-08-01T13:27:53.958Z,3.50
2022-08-01T13:29:08.847Z,3.33
2022-08-01T13:30:19.428Z,3.13
2022-08-01T13:31:33.771Z,3.42
2022-08-01T13:32:35.873Z,3.28
2022-08-01T13:33:54.299Z,3.10
2022-08-01T13:35:05.339Z,3.00
2022-08-01T13:36:07.957Z,3.33
2022-08-01T13:37:12.375Z,3.30
2022-08-01T13:38:17.592Z,3.15
2022-08-01T13:39:40.493Z,3.13
2022-08-01T13:40:42.892Z,3.22
2022-08-01T13:41:45.712Z,2.95
2022-08-01T13:42:47.768Z,3.10
2022-08-01T13:43:58.769Z,3.30
2022-08-01T13:45:03.044Z,3.33
2022-08-01T13:46:06.944Z,3.30
2022-08-01T13:47:15.323Z,3.20
2022-08-01T13:48:19.879Z,3.33
2022-08-01T13:49:22.874Z,3.67
2022-08-01T13:50:25.236Z,3.35
2022-08-01T13:51:27.351Z,3.47
2022-08-01T13:52:30.542Z,3.65
2022-08-01T13:53:32.692Z,4.05
2022-08-01T13:54:35.282Z,3.53
2022-08-01T13:55:38.283Z,3.55
2022-08-01T13:56:40.590Z,3.78
2022-08-01T13:57:42.732Z,3.20
2022-08-01T13:58:45.932Z,3.80
2022-08-01T13:59:48.055Z,3.47
2022-08-01T14:00:50.420Z,3.60
2022-08-01T14:01:52.920Z,4.32
2022-08-01T14:02:58.151Z,4.45
2022-08-01T14:04:02.038Z,3.63
2022-08-01T14:05:04.416Z,3.25
2022-08-01T14:06:08.414Z,3.35
2022-08-01T14:07:14.410Z,3.47
2022-08-01T14:08:19.772Z,3.45
2022-08-01T14:09:24.802Z,3.33
2022-08-01T14:10:27.093Z,3.28
2022-08-01T14:11:32.972Z,3.70
2022-08-01T14:12:39.642Z,3.60
2022-08-01T14:13:48.504Z,3.40
2022-08-01T14:15:54.327Z,3.78
2022-08-01T14:16:57.533Z,3.45
2022-08-01T14:18:01.833Z,3.47
2022-08-01T14:19:04.152Z,3.80
2022-08-01T14:20:06.735Z,3.42
2022-08-01T14:21:11.501Z,3.10
2022-08-01T14:22:13.539Z,3.47
2022-08-01T14:23:15.690Z,3.83
2022-08-01T14:24:17.703Z,3.28
2022-08-01T14:25:24.052Z,3.20
2022-08-01T14:26:41.822Z,3.45
2022-08-01T14:27:43.968Z,4.47
2022-08-01T14:28:48.968Z,3.50
2022-08-01T14:30:03.253Z,4.68
2022-08-01T14:31:07.489Z,3.60
2022-08-01T14:32:09.932Z,3.33
2022-08-01T14:33:13.206Z,3.78
2022-08-01T14:34:15.599Z,2.92
2022-08-01T14:35:17.752Z,4.35
2022-08-01T14:36:30.579Z,3.47
2022-08-01T14:37:38.034Z,3.55
2022-08-01T14:38:41.035Z,3.28
2022-08-01T14:39:53.487Z,4.00
2022-08-01T14:40:56.838Z,3.75
2022-08-01T14:43:29.386Z,3.45
2022-08-01T14:44:34.727Z,3.40
2022-08-01T14:45:38.197Z,4.18
2022-08-01T14:46:57.921Z,3.40
2022-08-01T14:48:00.926Z,3.88
2022-08-01T14:49:03.002Z,3.83
2022-08-01T14:50:07.661Z,3.30
2022-08-01T14:51:10.058Z,3.33
2022-08-01T14:52:12.219Z,4.47
2022-08-01T14:53:16.437Z,3.47
2022-08-01T14:54:18.695Z,3.88